AirNav   Textron
 
 983 users online  

82IS Landings Condominium Airport
Huntley, Illinois, USA

GOING TO HUNTLEY?


FAA INFORMATION EFFECTIVE 14 SEPTEMBER 2017

Location

FAA Identifier: 82IS
Lat/Long: 42-08-35.6650N / 088-24-11.9250W
42-08.594417N / 088-24.198750W
42.1432403 / -88.4033125
(estimated)
Elevation: 888 ft. / 271 m (estimated)
Variation: 00E (1980)
From city: 2 miles SE of HUNTLEY, IL
Time zone: UTC -5 (UTC -6 during Standard Time)
Zip code: 60142

Airport Operations

Airport use: Private use. Permission required prior to landing
Activation date: 09/1973
Control tower: no
ARTCC: CHICAGO CENTER
FSS: KANKAKEE FLIGHT SERVICE STATION
NOTAMs facility: FDC (NOTAM-D service not available)
Attendance: 1000-1800
Wind indicator: yes
Segmented circle: yes
Lights: ACTVT HIRL RY 13/31; REIL RY 31 - 122.9.
Beacon: white-green (lighted land airport)
Operates sunset to sunrise.

Airport Communications

WX ASOS at DPA (16 nm SE): PHONE 630-584-2728
WX AWOS-AV at 06C (16 nm SE): 128.275
WX AWOS-3 at DKB (18 nm SW): 119.075 (815-748-2350)

Nearby radio navigation aids

VOR radial/distance  VOR name  Freq  Var
DPAr349/15.4DUPAGE VOR/DME108.4002E
OBKr259/20.6NORTHBROOK VOR/DME113.0002W
ORDr291/24.1CHICAGO O'HARE VOR/DME113.9002E
BUUr189/33.1BURBUN VOR/DME114.5001W
RFDr097/35.7ROCKFORD VOR/DME110.8001E
JOTr352/36.0JOLIET VORTAC112.3002E
JVLr126/39.9JANESVILLE VOR/DME114.3003E

 
NDB name  Hdg/Dist  Freq  Var  ID
LAKE LAWN166/34.440400WLVV .-.. ...- ...-

Airport Services

Airframe service: NONE
Powerplant service: NONE

Runway Information

Runway 13/31

Dimensions: 3141 x 50 ft. / 957 x 15 m
Surface: asphalt
Runway edge lights: high intensity
RUNWAY 13  RUNWAY 31
Latitude: 42-08.769167N42-08.419667N
Longitude: 088-24.454833W088-23.942667W
Elevation: 881.0 ft.888.0 ft.
Traffic pattern: leftright
Displaced threshold: no394 ft.
Runway end identifier lights: no
Touchdown point: yes, no lightsyes, no lights
Obstructions: nonerr

Airport Ownership and Management from official FAA records

Ownership: Privately-owned
Owner: LANDINGS CONDO OWNERS ASSOC
BOX 0697
HUNTLEY, IL 60142
Phone 847-669-3515
Manager: LACOA BOARD OF DIRECTORS
BOX 0697
HUNTLEY, IL 60142
Phone 847-669-3515

Airport Operational Statistics

Aircraft based on the field: 112
Single engine airplanes: 96
Multi engine airplanes: 12
Helicopters: 4
    

Instrument Procedures

There are no published instrument procedures at 82IS.

Some nearby airports with instrument procedures:

3CK - Lake in the Hills Airport (5 nm NE)
10C - Galt Field Airport (16 nm N)
KDPA - DuPage Airport (16 nm SE)
C81 - Campbell Airport (18 nm NE)
KDKB - De Kalb Taylor Municipal Airport (18 nm SW)
 
Loc | Ops | Rwys | IFR | FBO | Links
Com | Nav | Svcs | Stats | Notes


 
Area around 82IS (Landings Condominium Airport)
 
Road maps at: MapQuest Bing Google
 
Aerial photo
WARNING: Photo may not be current or correct
Aerial photo of 82IS (Landings Condominium Airport)
Photo taken 05-Sep-2006

Do you have a better or more recent aerial photo of Landings Condominium Airport that you would like to share? If so, please send us your photo.

 
Sectional chart

 
Airport distance calculator
Flying to Landings Condominium Airport? Find the distance to fly.

From to 82IS

Sunrise and sunset
Times for 24-Sep-2017
 Local
(UTC-5)
 Zulu
(UTC)
Morning civil twilight06:1611:16
Sunrise06:4411:44
Sunset18:4723:47
Evening civil twilight19:1500:15

Current date and time
Zulu (UTC)  24-Sep-2017 20:12:08
Local (UTC-5)  24-Sep-2017 15:12:08
 
METAR
KDPA 
15nm SE 
241952Z 15011G17KT 9SM FEW065 32/16 A3003 RMK AO2 SLP161 T03220161
KDKB 
18nm SW 
241955Z AUTO 19009KT 10SM CLR 31/17 A3004 RMK AO2 T03140166
KPWK 
22nm E 
241952Z 12008G15KT 080V170 10SM CLR 33/18 A3003 RMK AO2 SLP165 T03280178 $
KARR 
23nm S 
241952Z 18008G14KT 150V220 10SM SCT065 32/17 A3003 RMK AO2 SLP164 T03220167
KORD 
23nm SE 
241951Z 14008KT 10SM SCT070 33/14 A3002 RMK AO2 SLP160 T03280144
KUGN 
29nm NE 
241955Z 12008KT 8SM CLR 29/19 A3003 RMK AO2 SLP157 T02940189
TAF
KDPA 
15nm SE 
241725Z 2418/2518 18011KT P6SM FEW060 FM250100 15003KT P6SM SKC FM251500 20008KT P6SM FEW050
NOTAMs
Click for the latest NOTAMs
NOTAMs are issued by the DoD/FAA and will open in a separate window not controlled by AirNav.

 

 
 

Would you like to see your business listed on this page?

 If your business provides an interesting product or service to pilots, flight crews, aircraft, or users of the Landings Condominium Airport, you should consider listing it here.  To start the listing process, click on the button below
 
Add a business
 

Other Pages about Landings Condominium Airport

Update a link
 
Copyright © AirNav, LLC. All rights reserved. Privacy Policy  Contact